createdAt,value
2023-02-19T00:01:35.915Z,6.30
2023-02-19T00:04:05.100Z,6.30
2023-02-19T00:06:33.698Z,6.20
2023-02-19T00:09:01.064Z,6.30
2023-02-19T00:11:29.662Z,7.20
2023-02-19T00:13:57.761Z,6.40
2023-02-19T00:16:26.042Z,6.50
2023-02-19T00:18:55.130Z,6.50
2023-02-19T00:21:22.349Z,6.30
2023-02-19T00:23:50.214Z,5.60
2023-02-19T00:26:18.901Z,6.60
2023-02-19T00:28:47.133Z,6.50
2023-02-19T00:31:23.049Z,6.30
2023-02-19T00:33:52.000Z,6.20
2023-02-19T00:36:20.108Z,6.50
2023-02-19T00:38:47.611Z,6.50
2023-02-19T00:41:21.625Z,6.20
2023-02-19T00:43:50.368Z,6.30
2023-02-19T00:46:18.694Z,6.30
2023-02-19T00:48:46.015Z,6.30
2023-02-19T00:51:12.895Z,6.90
2023-02-19T00:53:42.579Z,6.30
2023-02-19T00:56:09.425Z,6.30
2023-02-19T00:58:36.604Z,5.90
2023-02-19T01:01:03.382Z,6.30
2023-02-19T01:03:30.051Z,5.70
2023-02-19T01:05:56.736Z,6.30
2023-02-19T01:10:51.738Z,6.20
2023-02-19T01:13:18.803Z,6.20
2023-02-19T01:15:45.753Z,6.30
2023-02-19T01:18:12.633Z,6.50
2023-02-19T01:20:41.010Z,6.20
2023-02-19T01:23:08.360Z,6.30
2023-02-19T01:28:02.700Z,6.20
2023-02-19T01:30:29.558Z,6.50
2023-02-19T01:32:56.195Z,6.30
2023-02-19T01:35:22.866Z,6.10
2023-02-19T01:37:49.582Z,6.70
2023-02-19T01:40:16.519Z,6.60
2023-02-19T01:45:27.897Z,6.30
2023-02-19T01:48:09.018Z,6.00
2023-02-19T01:50:41.134Z,6.10
2023-02-19T01:53:10.477Z,6.20
2023-02-19T01:55:38.213Z,6.00
2023-02-19T01:58:06.141Z,5.90
2023-02-19T02:00:33.877Z,6.10
2023-02-19T02:03:01.137Z,5.90
2023-02-19T02:05:55.573Z,6.20
2023-02-19T02:08:41.347Z,6.20
2023-02-19T02:11:08.878Z,5.40
2023-02-19T02:13:38.374Z,6.20
2023-02-19T02:16:16.423Z,6.00
2023-02-19T02:18:53.901Z,6.00
2023-02-19T02:21:40.141Z,5.90
2023-02-19T02:24:32.106Z,6.20
2023-02-19T02:27:17.380Z,6.00
2023-02-19T02:30:22.083Z,5.90
2023-02-19T02:32:55.867Z,5.90
2023-02-19T02:35:26.396Z,5.90
2023-02-19T02:37:56.662Z,5.80
2023-02-19T02:40:24.114Z,6.20
2023-02-19T02:42:50.733Z,5.90
2023-02-19T02:45:36.859Z,5.60
2023-02-19T02:48:20.126Z,5.50
2023-02-19T02:50:50.539Z,5.60
2023-02-19T02:53:39.642Z,5.60
2023-02-19T02:56:07.655Z,5.70
2023-02-19T02:58:34.845Z,5.80
2023-02-19T03:01:25.512Z,5.60
2023-02-19T03:03:57.429Z,5.70
2023-02-19T03:06:28.698Z,5.40
2023-02-19T03:08:59.045Z,5.50
2023-02-19T03:11:44.104Z,5.60
2023-02-19T03:14:33.334Z,5.60
2023-02-19T03:17:24.174Z,5.30
2023-02-19T03:19:55.678Z,5.50
2023-02-19T03:22:27.376Z,5.40
2023-02-19T03:25:16.933Z,5.40
2023-02-19T03:27:44.850Z,5.30
2023-02-19T03:30:15.198Z,4.90
2023-02-19T03:32:48.075Z,5.30
2023-02-19T03:35:18.611Z,5.10
2023-02-19T03:37:50.196Z,5.00
2023-02-19T03:40:17.253Z,5.20
2023-02-19T03:42:50.296Z,5.00
2023-02-19T03:45:31.394Z,5.00
2023-02-19T03:48:06.721Z,5.20
2023-02-19T03:50:43.110Z,4.90
2023-02-19T03:53:17.934Z,5.30
2023-02-19T03:55:53.447Z,4.70
2023-02-19T03:58:28.081Z,4.50
2023-02-19T04:01:02.259Z,4.90
2023-02-19T04:03:34.101Z,4.40
2023-02-19T04:06:05.148Z,4.60
2023-02-19T04:08:35.401Z,3.70
2023-02-19T04:13:32.492Z,4.10
2023-02-19T04:16:03.458Z,4.10
2023-02-19T04:18:34.163Z,2.90
2023-02-19T04:21:02.990Z,4.30
2023-02-19T04:23:36.217Z,4.30
2023-02-19T04:26:04.462Z,4.20
2023-02-19T04:28:31.367Z,3.70
2023-02-19T04:35:52.558Z,4.30
2023-02-19T04:38:19.208Z,4.70
2023-02-19T04:43:13.071Z,4.30
2023-02-19T04:48:06.682Z,4.00
2023-02-19T04:53:01.001Z,4.00
2023-02-19T05:10:09.913Z,3.80
2023-02-19T05:12:36.531Z,3.80
2023-02-19T05:17:32.997Z,4.00
2023-02-19T05:19:59.653Z,3.90
2023-02-19T05:22:27.893Z,4.00
2023-02-19T05:27:22.092Z,3.80
2023-02-19T05:34:42.896Z,3.80
2023-02-19T05:39:36.450Z,4.20
2023-02-19T05:44:30.716Z,3.90
2023-02-19T05:46:57.604Z,3.80
2023-02-19T05:49:24.404Z,4.00
2023-02-19T05:54:17.989Z,3.60
2023-02-19T05:56:44.639Z,4.50
2023-02-19T05:59:17.734Z,3.90
2023-02-19T06:01:45.302Z,3.90
2023-02-19T06:04:13.276Z,4.40
2023-02-19T06:06:40.770Z,4.00
2023-02-19T06:09:07.739Z,4.50
2023-02-19T06:18:56.457Z,3.60
2023-02-19T06:21:23.123Z,4.10
2023-02-19T06:26:19.784Z,3.70
2023-02-19T06:28:48.061Z,3.70
2023-02-19T06:36:12.216Z,3.50
2023-02-19T06:38:39.180Z,4.30
2023-02-19T06:41:07.286Z,4.00
2023-02-19T06:43:34.906Z,3.90
2023-02-19T06:46:03.215Z,3.90
2023-02-19T06:48:31.071Z,3.90
2023-02-19T06:50:58.136Z,3.80
2023-02-19T06:53:25.673Z,3.70
2023-02-19T06:56:04.034Z,3.90
2023-02-19T06:58:32.063Z,4.00
2023-02-19T07:00:58.963Z,4.00
2023-02-19T07:03:26.003Z,4.10
2023-02-19T07:08:19.803Z,4.10
2023-02-19T07:10:54.987Z,4.10
2023-02-19T07:15:49.141Z,4.00
2023-02-19T07:18:17.139Z,4.30
2023-02-19T07:28:05.837Z,4.30
2023-02-19T07:32:59.545Z,4.20
2023-02-19T07:35:26.525Z,4.00
2023-02-19T07:40:20.089Z,4.50
2023-02-19T07:45:14.921Z,4.50
2023-02-19T08:02:43.379Z,4.50
2023-02-19T08:07:37.126Z,4.30
2023-02-19T08:10:23.023Z,4.30
2023-02-19T08:13:13.295Z,4.20
2023-02-19T08:18:07.684Z,4.30
2023-02-19T08:20:34.511Z,4.50
2023-02-19T08:25:29.122Z,3.90
2023-02-19T08:30:22.839Z,5.00
2023-02-19T08:35:17.448Z,4.70
2023-02-19T08:37:44.123Z,4.70
2023-02-19T08:40:11.167Z,4.90
2023-02-19T08:45:05.355Z,5.30
2023-02-19T08:47:34.356Z,4.90
2023-02-19T08:52:28.777Z,5.10
2023-02-19T08:59:49.629Z,5.70
2023-02-19T09:04:43.474Z,5.40
2023-02-19T09:07:11.922Z,5.50
2023-02-19T09:09:39.777Z,5.40
2023-02-19T09:12:08.426Z,5.10
2023-02-19T09:14:35.951Z,5.40
2023-02-19T09:17:03.978Z,5.40
2023-02-19T09:19:31.240Z,5.40
2023-02-19T09:24:25.383Z,5.50
2023-02-19T09:26:53.793Z,5.40
2023-02-19T09:29:21.182Z,5.60
2023-02-19T09:39:11.746Z,5.80
2023-02-19T09:41:44.568Z,5.50
2023-02-19T09:44:17.685Z,5.60
2023-02-19T09:46:46.814Z,5.90
2023-02-19T09:49:16.775Z,6.30
2023-02-19T09:51:48.765Z,5.70
2023-02-19T09:54:26.056Z,5.60
2023-02-19T09:56:54.690Z,5.60
2023-02-19T09:59:25.539Z,6.00
2023-02-19T10:01:59.228Z,6.00
2023-02-19T10:04:26.517Z,6.50
2023-02-19T10:09:28.279Z,6.00
2023-02-19T10:11:55.649Z,6.10
2023-02-19T10:14:30.759Z,6.40
2023-02-19T10:17:00.594Z,6.40
2023-02-19T10:24:26.748Z,6.60
2023-02-19T10:31:48.813Z,6.10
2023-02-19T10:34:19.862Z,6.10
2023-02-19T10:36:48.627Z,6.10
2023-02-19T10:39:35.503Z,6.30
2023-02-19T10:42:02.909Z,6.20
2023-02-19T10:44:35.122Z,6.40
2023-02-19T10:47:02.420Z,6.40
2023-02-19T10:49:32.022Z,6.30
2023-02-19T10:52:01.748Z,6.10
2023-02-19T10:54:31.105Z,6.10
2023-02-19T10:57:24.642Z,6.20
2023-02-19T10:59:53.098Z,6.40
2023-02-19T11:02:21.353Z,6.30
2023-02-19T11:05:14.458Z,6.60
2023-02-19T11:07:45.725Z,7.00
2023-02-19T11:10:23.391Z,7.30
2023-02-19T11:12:51.881Z,6.60
2023-02-19T11:15:22.636Z,6.80
2023-02-19T11:17:57.186Z,7.30
2023-02-19T11:20:24.277Z,7.40
2023-02-19T11:22:51.321Z,6.30
2023-02-19T11:25:24.713Z,6.80
2023-02-19T11:28:01.895Z,6.70
2023-02-19T11:30:37.355Z,6.60
2023-02-19T11:33:34.668Z,6.70
2023-02-19T11:36:21.063Z,6.70
2023-02-19T11:38:47.925Z,6.70
2023-02-19T11:41:22.051Z,6.50
2023-02-19T11:44:01.843Z,6.80
2023-02-19T11:46:36.634Z,7.00
2023-02-19T11:49:18.303Z,7.70
2023-02-19T11:52:03.577Z,7.10
2023-02-19T11:54:48.567Z,7.20
2023-02-19T11:57:30.868Z,6.60
2023-02-19T12:00:15.919Z,7.00
2023-02-19T12:03:10.730Z,7.20
2023-02-19T12:05:49.965Z,7.50
2023-02-19T12:08:47.718Z,7.50
2023-02-19T12:11:35.453Z,7.50
2023-02-19T12:14:23.995Z,7.90
2023-02-19T12:16:59.024Z,7.70
2023-02-19T12:19:55.690Z,8.10
2023-02-19T12:22:29.471Z,7.70
2023-02-19T12:25:23.901Z,7.70
2023-02-19T12:28:17.852Z,7.30
2023-02-19T12:31:04.409Z,7.80
2023-02-19T12:33:56.392Z,7.20
2023-02-19T12:36:33.831Z,8.30
2023-02-19T12:39:12.165Z,7.90
2023-02-19T12:41:45.057Z,7.30
2023-02-19T12:44:16.812Z,7.90
2023-02-19T12:46:48.921Z,8.00
2023-02-19T12:49:25.554Z,8.20
2023-02-19T12:51:56.825Z,8.00
2023-02-19T12:54:30.124Z,8.30
2023-02-19T12:57:01.866Z,8.50
2023-02-19T12:59:34.431Z,11.70
2023-02-19T13:02:13.329Z,14.40
2023-02-19T13:04:49.751Z,14.40
2023-02-19T13:07:22.318Z,13.40
2023-02-19T13:09:54.549Z,15.70
2023-02-19T13:12:24.611Z,16.90
2023-02-19T13:14:57.651Z,16.50
2023-02-19T13:17:28.346Z,13.50
2023-02-19T13:20:02.069Z,10.40
2023-02-19T13:22:57.308Z,12.00
2023-02-19T13:25:39.531Z,13.20
2023-02-19T13:28:19.895Z,14.70
2023-02-19T13:31:05.506Z,10.90
2023-02-19T13:33:43.562Z,9.00
2023-02-19T13:36:13.973Z,8.30
2023-02-19T13:38:43.957Z,7.70
2023-02-19T13:41:28.774Z,7.60
2023-02-19T13:44:00.017Z,7.40
2023-02-19T13:46:36.130Z,7.30
2023-02-19T13:49:46.743Z,7.00
2023-02-19T13:52:40.910Z,8.20
2023-02-19T13:55:49.001Z,10.70
2023-02-19T13:59:01.018Z,13.60
2023-02-19T14:02:11.501Z,16.50
2023-02-19T14:04:50.387Z,14.90
2023-02-19T14:07:33.831Z,10.90
2023-02-19T14:12:34.057Z,7.60
2023-02-19T14:15:34.485Z,7.50
2023-02-19T14:18:02.441Z,7.20
2023-02-19T14:20:48.971Z,7.50
2023-02-19T14:23:17.662Z,8.10
2023-02-19T14:25:52.078Z,8.00
2023-02-19T14:28:41.765Z,7.90
2023-02-19T14:31:22.870Z,8.50
2023-02-19T14:33:53.059Z,9.40
2023-02-19T14:36:31.208Z,7.90
2023-02-19T14:39:00.514Z,7.30
2023-02-19T14:41:30.174Z,7.20
2023-02-19T14:44:02.368Z,7.10
2023-02-19T14:46:35.621Z,7.10
2023-02-19T14:49:06.887Z,7.10
2023-02-19T14:51:39.233Z,7.40
2023-02-19T14:54:15.970Z,7.50
2023-02-19T14:56:47.302Z,7.60
2023-02-19T14:59:33.130Z,7.60
2023-02-19T15:02:02.420Z,7.80
2023-02-19T15:04:34.428Z,7.60
2023-02-19T15:07:08.435Z,7.80
2023-02-19T15:09:40.675Z,8.70
2023-02-19T15:12:14.979Z,7.50
2023-02-19T15:14:43.076Z,7.60
2023-02-19T15:17:15.709Z,7.50
2023-02-19T15:19:46.739Z,7.20
2023-02-19T15:22:20.592Z,7.00
2023-02-19T15:24:48.859Z,6.90
2023-02-19T15:27:23.869Z,6.80
2023-02-19T15:29:53.717Z,6.10
2023-02-19T15:32:22.211Z,6.70
2023-02-19T15:34:57.660Z,7.00
2023-02-19T15:37:30.407Z,7.00
2023-02-19T15:39:59.851Z,7.00
2023-02-19T15:42:34.095Z,6.00
2023-02-19T15:45:06.310Z,6.60
2023-02-19T15:47:40.634Z,6.30
2023-02-19T15:50:11.355Z,6.50
2023-02-19T15:52:47.574Z,6.60
2023-02-19T15:55:26.514Z,6.50
2023-02-19T15:58:08.157Z,7.80
2023-02-19T16:00:44.104Z,5.60
2023-02-19T16:03:17.462Z,6.60
2023-02-19T16:08:20.918Z,5.80
2023-02-19T16:10:58.881Z,6.20
2023-02-19T16:13:27.150Z,6.30
2023-02-19T16:16:10.063Z,6.20
2023-02-19T16:18:46.501Z,6.50
2023-02-19T16:21:17.613Z,4.10
2023-02-19T16:23:47.702Z,6.20
2023-02-19T16:26:14.995Z,6.10
2023-02-19T16:28:42.106Z,6.20
2023-02-19T16:31:10.860Z,6.20
2023-02-19T16:33:39.969Z,6.00
2023-02-19T16:36:25.910Z,6.30
2023-02-19T16:39:20.833Z,5.90
2023-02-19T16:42:18.681Z,5.80
2023-02-19T16:44:46.501Z,6.00
2023-02-19T16:47:28.837Z,5.80
2023-02-19T16:49:57.396Z,5.80
2023-02-19T16:52:24.306Z,5.90
2023-02-19T16:54:51.646Z,5.90
2023-02-19T16:57:20.029Z,5.90
2023-02-19T16:59:47.481Z,6.10
2023-02-19T17:02:18.910Z,5.80
2023-02-19T17:04:48.528Z,5.70
2023-02-19T17:07:17.035Z,5.80
2023-02-19T17:09:43.835Z,5.90
2023-02-19T17:12:13.081Z,5.70
2023-02-19T17:14:39.775Z,5.70
2023-02-19T17:19:34.120Z,5.60
2023-02-19T17:22:01.343Z,5.60
2023-02-19T17:24:28.038Z,5.60
2023-02-19T17:26:54.948Z,5.80
2023-02-19T17:29:23.795Z,5.60
2023-02-19T17:34:18.993Z,5.80
2023-02-19T17:36:48.226Z,5.70
2023-02-19T17:39:17.614Z,6.20
2023-02-19T17:46:40.109Z,5.60
2023-02-19T17:49:07.698Z,5.60
2023-02-19T17:54:01.924Z,5.60
2023-02-19T17:58:58.128Z,5.50
2023-02-19T18:03:52.913Z,5.60
2023-02-19T18:08:49.035Z,5.50
2023-02-19T18:13:42.738Z,4.90
2023-02-19T18:21:07.204Z,6.00
2023-02-19T18:23:33.838Z,5.60
2023-02-19T18:28:27.611Z,6.20
2023-02-19T18:30:54.416Z,5.70
2023-02-19T18:35:49.890Z,4.90
2023-02-19T18:38:17.341Z,5.50
2023-02-19T18:43:11.156Z,5.30
2023-02-19T18:48:11.115Z,5.30
2023-02-19T18:50:40.539Z,5.40
2023-02-19T18:55:34.904Z,5.30
2023-02-19T18:58:05.088Z,5.20
2023-02-19T19:00:35.736Z,5.30
2023-02-19T19:03:02.729Z,5.30
2023-02-19T19:07:58.424Z,5.20
2023-02-19T19:12:55.242Z,5.10
2023-02-19T19:15:26.256Z,5.40
2023-02-19T19:17:57.570Z,5.00
2023-02-19T19:22:53.028Z,4.90
2023-02-19T19:25:22.357Z,5.10
2023-02-19T19:27:51.850Z,5.00
2023-02-19T19:30:20.787Z,5.00
2023-02-19T19:32:48.540Z,5.00
2023-02-19T19:35:16.695Z,5.00
2023-02-19T19:37:45.025Z,3.90
2023-02-19T19:40:13.056Z,5.20
2023-02-19T19:45:08.903Z,4.70
2023-02-19T19:47:40.717Z,5.20
2023-02-19T19:50:11.801Z,4.90
2023-02-19T19:52:38.572Z,4.70
2023-02-19T19:55:05.842Z,5.00
2023-02-19T19:57:33.379Z,5.10
2023-02-19T20:00:01.875Z,5.30
2023-02-19T20:04:57.554Z,5.00
2023-02-19T20:07:24.541Z,4.80
2023-02-19T20:12:20.546Z,4.90
2023-02-19T20:17:15.452Z,4.80
2023-02-19T20:22:13.374Z,4.90
2023-02-19T20:24:40.054Z,4.20
2023-02-19T20:27:08.331Z,4.90
2023-02-19T20:32:03.474Z,4.90
2023-02-19T20:34:30.806Z,4.60
2023-02-19T20:36:58.634Z,4.50
2023-02-19T20:39:28.487Z,4.30
2023-02-19T20:41:56.975Z,4.20
2023-02-19T20:44:24.700Z,4.50
2023-02-19T20:46:53.206Z,4.50
2023-02-19T20:49:22.227Z,4.80
2023-02-19T20:51:51.240Z,4.40
2023-02-19T20:54:18.922Z,4.30
2023-02-19T20:56:47.350Z,4.40
2023-02-19T20:59:15.765Z,4.50
2023-02-19T21:01:42.829Z,4.50
2023-02-19T21:09:07.603Z,4.50
2023-02-19T21:11:34.943Z,5.20
2023-02-19T21:14:02.665Z,4.60
2023-02-19T21:16:31.151Z,4.30
2023-02-19T21:18:58.697Z,4.40
2023-02-19T21:21:26.325Z,4.30
2023-02-19T21:23:54.042Z,4.30
2023-02-19T21:26:21.509Z,4.20
2023-02-19T21:28:50.448Z,4.00
2023-02-19T21:31:19.506Z,4.20
2023-02-19T21:33:49.911Z,4.40
2023-02-19T21:36:18.643Z,4.30
2023-02-19T21:48:38.513Z,4.20
2023-02-19T21:51:06.037Z,4.10
2023-02-19T21:53:33.341Z,4.60
2023-02-19T22:00:55.998Z,4.10
2023-02-19T22:03:23.483Z,4.20
2023-02-19T22:05:50.864Z,4.30
2023-02-19T22:23:02.548Z,4.30
2023-02-19T22:40:13.853Z,4.30
2023-02-19T22:45:10.772Z,3.80
2023-02-19T22:50:07.997Z,3.70
2023-02-19T22:52:36.447Z,3.70
2023-02-19T22:57:35.938Z,3.80
2023-02-19T23:04:57.576Z,3.80
2023-02-19T23:07:24.886Z,4.20
2023-02-19T23:14:47.191Z,3.90
2023-02-19T23:17:13.954Z,3.40
2023-02-19T23:19:43.946Z,3.60
2023-02-19T23:27:05.784Z,3.70
2023-02-19T23:29:35.813Z,3.60
2023-02-19T23:32:06.168Z,3.50
2023-02-19T23:34:34.913Z,3.50
2023-02-19T23:37:04.837Z,3.50
2023-02-19T23:41:59.481Z,4.10
2023-02-19T23:46:59.225Z,3.30
2023-02-19T23:49:26.588Z,3.50
2023-02-19T23:51:56.021Z,3.50
2023-02-19T23:54:22.699Z,3.40
